Time;durP1;ratioP1;P1;durP2;ratioP2;P2;SDS_P1;SDS_P2;PMS_P1;PMS_P2;Temp;Humidity;BMP_temperature;BMP_pressure;BME280_temperature;BME280_humidity;BME280_pressure;Samples;Min_cycle;Max_cycle;Signal;HPM_P1;HPM_P2
2023/03/14 00:01:28;;;;;;;13.73;3.42;;;;;;;-145.01;100.00;64805.59;5077204;28;20035;-59
2023/03/14 00:03:54;;;;;;;13.93;3.20;;;;;;;-145.01;100.00;64805.59;5077464;28;20043;-59
2023/03/14 00:06:20;;;;;;;12.95;3.17;;;;;;;-145.01;100.00;64805.59;5079990;28;20027;-59
2023/03/14 00:08:45;;;;;;;15.63;3.55;;;;;;;-145.01;100.00;64805.59;5083192;28;20032;-59
2023/03/14 00:11:16;;;;;;;15.43;2.80;;;;;;;-145.01;100.00;64805.59;5063310;28;20032;-59
2023/03/14 00:13:42;;;;;;;11.00;2.80;;;;;;;-145.01;100.00;64805.59;5080909;28;20713;-59
2023/03/14 00:16:09;;;;;;;13.98;2.90;;;;;;;-145.01;100.00;64805.59;5078741;28;20085;-59
2023/03/14 00:18:34;;;;;;;10.68;3.08;;;;;;;-145.01;100.00;64805.59;5086033;28;20046;-59
2023/03/14 00:21:00;;;;;;;11.77;3.05;;;;;;;-145.01;100.00;64805.59;5080156;28;20025;-59
2023/03/14 00:23:27;;;;;;;9.77;2.90;;;;;;;-145.01;100.00;64805.59;5082002;28;20027;-59
2023/03/14 00:25:52;;;;;;;16.15;3.45;;;;;;;-145.01;100.00;64805.59;5086775;28;20030;-59
2023/03/14 00:28:18;;;;;;;15.50;3.17;;;;;;;-145.01;100.00;64805.59;5085278;28;20452;-59
2023/03/14 00:30:43;;;;;;;15.75;3.25;;;;;;;-145.01;100.00;64805.59;5082067;28;20044;-59
2023/03/14 00:33:09;;;;;;;22.67;4.20;;;;;;;-145.01;100.00;64805.59;5062790;28;20032;-59
2023/03/14 00:35:34;;;;;;;12.82;3.42;;;;;;;-145.01;100.00;64805.59;5085689;28;20093;-59
2023/03/14 00:37:59;;;;;;;14.27;2.97;;;;;;;-145.01;100.00;64805.59;5076456;28;20029;-59
2023/03/14 00:40:25;;;;;;;14.68;3.15;;;;;;;-145.01;100.00;64805.59;5088869;28;20031;-59
2023/03/14 00:42:50;;;;;;;12.05;3.03;;;;;;;-145.01;100.00;64805.59;5080964;28;20024;-60
2023/03/14 00:45:16;;;;;;;15.68;3.20;;;;;;;-145.01;100.00;64805.59;5091094;28;20499;-59
2023/03/14 00:47:45;;;;;;;11.00;2.92;;;;;;;-145.01;100.00;64805.59;5074909;28;20032;-59
2023/03/14 00:50:11;;;;;;;13.85;3.83;;;;;;;-145.01;100.00;64805.59;5080244;28;20463;-59
2023/03/14 00:52:36;;;;;;;14.43;3.13;;;;;;;-145.01;100.00;64805.59;5063178;28;20166;-59
2023/03/14 00:55:02;;;;;;;19.58;3.33;;;;;;;-145.01;100.00;64805.59;5073825;28;20386;-58
2023/03/14 00:57:27;;;;;;;17.88;3.30;;;;;;;-145.01;100.00;64805.59;5092422;28;20098;-59
2023/03/14 00:59:53;;;;;;;14.75;3.10;;;;;;;-145.01;100.00;64805.59;5076761;28;20040;-59
2023/03/14 01:02:18;;;;;;;14.50;3.22;;;;;;;-145.01;100.00;64805.59;5062489;28;20035;-59
2023/03/14 01:04:44;;;;;;;15.48;4.25;;;;;;;-145.01;100.00;64805.59;5090020;28;20027;-60
2023/03/14 01:07:09;;;;;;;16.77;3.08;;;;;;;-145.01;100.00;64805.59;5078615;28;20052;-59
2023/03/14 01:09:35;;;;;;;21.38;3.67;;;;;;;-145.01;100.00;64805.59;5084212;28;20033;-59
2023/03/14 01:12:00;;;;;;;23.95;3.95;;;;;;;-145.01;100.00;64805.59;5071798;28;20037;-59
2023/03/14 01:14:26;;;;;;;14.20;3.08;;;;;;;-145.01;100.00;64805.59;5095967;28;20066;-59
2023/03/14 01:16:51;;;;;;;19.17;3.22;;;;;;;-145.01;100.00;64805.59;5082882;28;20024;-59
2023/03/14 01:19:16;;;;;;;16.92;2.92;;;;;;;-145.01;100.00;64805.59;5085448;28;20105;-60
2023/03/14 01:21:42;;;;;;;26.85;4.22;;;;;;;-145.01;100.00;64805.59;5064783;28;20040;-59
2023/03/14 01:24:10;;;;;;;21.80;3.70;;;;;;;-145.01;100.00;64805.59;5081392;28;20052;-59
2023/03/14 01:26:35;;;;;;;17.15;3.35;;;;;;;-145.01;100.00;64805.59;5055002;28;20016;-59
2023/03/14 01:29:01;;;;;;;15.70;3.50;;;;;;;-145.01;100.00;64805.59;5081444;28;20368;-58
2023/03/14 01:31:27;;;;;;;17.02;3.10;;;;;;;-145.01;100.00;64805.59;5083337;28;20041;-58
2023/03/14 01:33:52;;;;;;;21.15;3.58;;;;;;;-145.01;100.00;64805.59;5089389;28;20090;-59
2023/03/14 01:36:18;;;;;;;20.02;3.38;;;;;;;-145.01;100.00;64805.59;5076025;28;20031;-59
2023/03/14 01:38:43;;;;;;;22.00;3.65;;;;;;;-145.01;100.00;64805.59;5086953;28;20061;-58
2023/03/14 01:41:13;;;;;;;17.92;3.72;;;;;;;-145.01;100.00;64805.59;5079569;28;20029;-59
2023/03/14 01:43:38;;;;;;;19.40;3.70;;;;;;;-145.01;100.00;64805.59;5083735;28;20066;-60
2023/03/14 01:46:03;;;;;;;20.10;3.40;;;;;;;-145.01;100.00;64805.59;5081038;28;20036;-59
2023/03/14 01:48:32;;;;;;;19.73;3.10;;;;;;;-145.01;100.00;64805.59;5078508;28;20031;-59
2023/03/14 01:50:59;;;;;;;26.58;3.53;;;;;;;-145.01;100.00;64805.59;5077596;28;20083;-59
2023/03/14 01:53:24;;;;;;;16.00;3.30;;;;;;;-145.01;100.00;64805.59;5064100;28;20027;-59
2023/03/14 01:55:50;;;;;;;11.63;2.40;;;;;;;-145.01;100.00;64805.59;5056764;28;20036;-59
2023/03/14 01:58:15;;;;;;;15.00;2.92;;;;;;;-145.01;100.00;64805.59;5062945;28;20551;-59
2023/03/14 02:00:41;;;;;;;24.48;2.83;;;;;;;-145.01;100.00;64805.59;5083452;28;20027;-59
2023/03/14 02:03:09;;;;;;;15.68;3.42;;;;;;;-145.01;100.00;64805.59;5066499;28;20494;-59
2023/03/14 02:05:35;;;;;;;16.35;3.22;;;;;;;-145.01;100.00;64805.59;5064135;28;20506;-59
2023/03/14 02:08:02;;;;;;;13.55;2.80;;;;;;;-145.01;100.00;64805.59;5055986;28;20097;-59
2023/03/14 02:10:32;;;;;;;13.73;3.20;;;;;;;-145.01;100.00;64805.59;5065760;28;20580;-59
2023/03/14 02:12:57;;;;;;;20.17;4.00;;;;;;;-145.01;100.00;64805.59;5053179;28;20113;-59
2023/03/14 02:15:23;;;;;;;21.40;3.30;;;;;;;-145.01;100.00;64805.59;5060187;28;20398;-59
2023/03/14 02:17:48;;;;;;;17.50;3.17;;;;;;;-145.01;100.00;64805.59;5053875;28;20654;-59
2023/03/14 02:20:28;;;;;;;25.05;2.97;;;;;;;-145.01;100.00;64805.59;5084313;28;20401;-59
2023/03/14 02:22:53;;;;;;;21.00;3.23;;;;;;;-145.01;100.00;64805.59;5062023;28;20028;-59
2023/03/14 02:25:28;;;;;;;15.02;3.35;;;;;;;-145.01;100.00;64805.59;5064666;28;20097;-59
2023/03/14 02:27:53;;;;;;;18.77;2.92;;;;;;;-145.01;100.00;64805.59;5078308;28;20028;-59
2023/03/14 02:30:24;;;;;;;12.45;2.78;;;;;;;-145.01;100.00;64805.59;5083434;28;20046;-59
2023/03/14 02:32:53;;;;;;;;;;;;;;;-145.01;100.00;64805.59;5078128;28;20702;-59
2023/03/14 02:35:20;;;;;;;16.05;3.33;;;;;;;-145.01;100.00;64805.59;5065989;28;20678;-59
2023/03/14 02:38:11;;;;;;;28.65;3.13;;;;;;;-145.01;100.00;64805.59;5067341;28;20023;-59
2023/03/14 02:40:36;;;;;;;19.98;3.00;;;;;;;-145.01;100.00;64805.59;5071752;28;20697;-59
2023/03/14 02:43:02;;;;;;;18.25;3.45;;;;;;;-145.01;100.00;64805.59;5082016;28;20031;-59
2023/03/14 02:45:39;;;;;;;24.10;3.00;;;;;;;-145.01;100.00;64805.59;5087599;28;20110;-59
2023/03/14 02:48:07;;;;;;;23.92;3.20;;;;;;;-145.01;100.00;64805.59;5077617;28;20119;-59
2023/03/14 02:50:33;;;;;;;13.30;2.58;;;;;;;-145.01;100.00;64805.59;5067308;28;20558;-59
2023/03/14 02:52:59;;;;;;;16.27;3.85;;;;;;;-145.01;100.00;64805.59;5060322;28;20106;-59
2023/03/14 02:55:26;;;;;;;22.70;3.15;;;;;;;-145.01;100.00;64805.59;5093946;28;20510;-59
2023/03/14 02:57:52;;;;;;;16.48;2.90;;;;;;;-145.01;100.00;64805.59;5063205;28;20405;-59
2023/03/14 03:00:17;;;;;;;18.63;3.08;;;;;;;-145.01;100.00;64805.59;5092858;28;20035;-59
2023/03/14 03:02:43;;;;;;;14.73;3.67;;;;;;;-145.01;100.00;64805.59;5085069;28;20028;-59
2023/03/14 03:05:08;;;;;;;11.00;2.63;;;;;;;-145.01;100.00;64805.59;5089590;28;20110;-60
2023/03/14 03:07:34;;;;;;;22.88;3.03;;;;;;;-145.01;100.00;64805.59;5064764;28;20386;-59
2023/03/14 03:09:59;;;;;;;16.90;2.88;;;;;;;-145.01;100.00;64805.59;5088236;28;20043;-59
2023/03/14 03:12:24;;;;;;;24.15;3.65;;;;;;;-145.01;100.00;64805.59;5086759;28;20536;-59
2023/03/14 03:14:50;;;;;;;20.52;2.80;;;;;;;-145.01;100.00;64805.59;5091460;28;20178;-59
2023/03/14 03:17:15;;;;;;;17.00;2.85;;;;;;;-145.01;100.00;64805.59;5081424;28;20383;-58
2023/03/14 03:19:42;;;;;;;20.85;3.38;;;;;;;-145.01;100.00;64805.59;5082604;28;20044;-59
2023/03/14 03:22:08;;;;;;;11.63;2.70;;;;;;;-145.01;100.00;64805.59;5068756;28;20039;-59
2023/03/14 03:24:33;;;;;;;17.50;3.47;;;;;;;-145.01;100.00;64805.59;5062293;28;20028;-58
2023/03/14 03:26:59;;;;;;;13.98;3.08;;;;;;;-145.01;100.00;64805.59;5091207;28;20159;-58
2023/03/14 03:29:24;;;;;;;19.08;3.10;;;;;;;-145.01;100.00;64805.59;5088472;27;20433;-61
2023/03/14 03:31:50;;;;;;;18.08;2.85;;;;;;;-145.01;100.00;64805.59;5095119;28;20462;-60
2023/03/14 03:34:15;;;;;;;9.70;2.45;;;;;;;-145.01;100.00;64805.59;5092833;28;20493;-59
2023/03/14 03:36:41;;;;;;;15.15;3.00;;;;;;;-145.01;100.00;64805.59;5054765;28;20020;-59
2023/03/14 03:39:06;;;;;;;17.25;2.90;;;;;;;-145.01;100.00;64805.59;5083833;28;20035;-59
2023/03/14 03:41:32;;;;;;;11.38;2.38;;;;;;;-145.01;100.00;64805.59;5067856;28;20581;-59
2023/03/14 03:43:57;;;;;;;9.48;2.40;;;;;;;-145.01;100.00;64805.59;5083182;28;20098;-59
2023/03/14 03:46:22;;;;;;;14.07;2.50;;;;;;;-145.01;100.00;64805.59;5080816;28;20374;-59
2023/03/14 03:48:48;;;;;;;10.50;1.90;;;;;;;-145.01;100.00;64805.59;5074906;28;20024;-59
2023/03/14 03:51:14;;;;;;;10.13;2.28;;;;;;;-145.01;100.00;64805.59;5083869;28;20382;-59
2023/03/14 03:53:40;;;;;;;13.82;2.60;;;;;;;-145.01;100.00;64805.59;5086838;28;20054;-59
2023/03/14 03:56:06;;;;;;;12.52;1.85;;;;;;;-145.01;100.00;64805.59;5080257;28;20024;-58
2023/03/14 03:58:31;;;;;;;7.93;2.10;;;;;;;-145.01;100.00;64805.59;5073547;28;20327;-59
2023/03/14 04:00:57;;;;;;;11.35;2.72;;;;;;;-145.01;100.00;64805.59;5061088;28;20036;-59
2023/03/14 04:03:22;;;;;;;9.95;1.95;;;;;;;-145.01;100.00;64805.59;5088662;28;20031;-59
2023/03/14 04:05:58;;;;;;;7.15;2.05;;;;;;;-145.01;100.00;64805.59;5093575;28;20036;-59
2023/03/14 04:08:23;;;;;;;10.30;1.92;;;;;;;-145.01;100.00;64805.59;5083945;28;20052;-59
2023/03/14 04:10:49;;;;;;;13.40;2.55;;;;;;;-145.01;100.00;64805.59;5052173;28;20020;-59
2023/03/14 04:13:14;;;;;;;8.02;1.98;;;;;;;-145.01;100.00;64805.59;5083784;28;20083;-59
2023/03/14 04:15:40;;;;;;;10.00;3.30;;;;;;;-145.01;100.00;64805.59;5089644;28;20046;-59
2023/03/14 04:18:05;;;;;;;12.55;2.15;;;;;;;-145.01;100.00;64805.59;5074629;28;20032;-59
2023/03/14 04:20:33;;;;;;;7.28;3.33;;;;;;;-145.01;100.00;64805.59;5094665;28;20369;-59
2023/03/14 04:22:58;;;;;;;6.13;1.83;;;;;;;-145.01;100.00;64805.59;5047513;28;20040;-59
2023/03/14 04:25:24;;;;;;;12.70;2.50;;;;;;;-145.01;100.00;64805.59;5083910;28;20300;-59
2023/03/14 04:27:49;;;;;;;7.30;3.67;;;;;;;-145.01;100.00;64805.59;5078761;28;20410;-59
2023/03/14 04:30:15;;;;;;;7.72;1.83;;;;;;;-145.01;100.00;64805.59;5088026;28;20024;-59
2023/03/14 04:32:40;;;;;;;9.05;2.60;;;;;;;-145.01;100.00;64805.59;5087354;28;20343;-59
2023/03/14 04:35:06;;;;;;;13.50;5.80;;;;;;;-145.01;100.00;64805.59;5072928;28;20137;-59
2023/03/14 04:37:32;;;;;;;8.02;2.20;;;;;;;-145.01;100.00;64805.59;5065036;28;20032;-59
2023/03/14 04:39:57;;;;;;;11.00;4.07;;;;;;;-145.01;100.00;64805.59;5085801;28;20709;-59
2023/03/14 04:42:22;;;;;;;12.52;5.22;;;;;;;-145.01;100.00;64805.59;5081491;28;20073;-60
2023/03/14 04:44:49;;;;;;;5.95;2.20;;;;;;;-145.01;100.00;64805.59;5092059;28;20036;-59
2023/03/14 04:47:15;;;;;;;5.53;1.50;;;;;;;-145.01;100.00;64805.59;5087388;28;20033;-59
2023/03/14 04:49:40;;;;;;;6.03;2.25;;;;;;;-145.01;100.00;64805.59;5078657;28;20028;-60
2023/03/14 04:52:06;;;;;;;8.25;2.08;;;;;;;-145.01;100.00;64805.59;5087137;28;20123;-60
2023/03/14 04:54:31;;;;;;;8.10;1.88;;;;;;;-145.01;100.00;64805.59;5086533;28;20730;-59
2023/03/14 04:56:57;;;;;;;5.80;1.50;;;;;;;-145.01;100.00;64805.59;5080523;28;20474;-60
2023/03/14 04:59:22;;;;;;;6.05;1.92;;;;;;;-145.01;100.00;64805.59;5078177;28;20035;-59
2023/03/14 05:01:49;;;;;;;6.50;2.88;;;;;;;-145.01;100.00;64805.59;5090178;28;20764;-59
2023/03/14 05:04:15;;;;;;;9.77;2.95;;;;;;;-145.01;100.00;64805.59;5090093;28;20050;-59
2023/03/14 05:06:42;;;;;;;11.52;2.20;;;;;;;-145.01;100.00;64805.59;5072474;28;20025;-59
2023/03/14 05:09:07;;;;;;;5.05;2.33;;;;;;;-145.01;100.00;64805.59;5083919;28;20435;-59
2023/03/14 05:11:33;;;;;;;4.47;1.38;;;;;;;-145.01;100.00;64805.59;5079315;28;20464;-59
2023/03/14 05:13:58;;;;;;;8.65;1.80;;;;;;;-145.01;100.00;64805.59;5084452;28;20043;-60
2023/03/14 05:16:24;;;;;;;4.28;1.60;;;;;;;-145.01;100.00;64805.59;5055011;28;20040;-60
2023/03/14 05:18:50;;;;;;;8.27;2.08;;;;;;;-145.01;100.00;64805.59;5083836;28;20028;-59
2023/03/14 05:21:15;;;;;;;6.40;2.05;;;;;;;-145.01;100.00;64805.59;5080345;28;20024;-60
2023/03/14 05:23:41;;;;;;;12.48;5.03;;;;;;;-145.01;100.00;64805.59;5077914;28;20086;-60
2023/03/14 05:26:06;;;;;;;8.40;2.00;;;;;;;-145.01;100.00;64805.59;5076148;28;20508;-60
2023/03/14 05:28:31;;;;;;;4.13;1.60;;;;;;;-145.01;100.00;64805.59;5082722;28;20020;-60
2023/03/14 05:30:57;;;;;;;7.25;1.73;;;;;;;-145.01;100.00;64805.59;5086683;28;20037;-60
2023/03/14 05:33:22;;;;;;;5.32;1.70;;;;;;;-145.01;100.00;64805.59;5075251;28;20032;-60
2023/03/14 05:35:48;;;;;;;6.30;1.30;;;;;;;-145.01;100.00;64805.59;5062103;28;20324;-61
2023/03/14 05:38:13;;;;;;;2.90;1.33;;;;;;;-145.01;100.00;64805.59;5082790;28;20021;-58
2023/03/14 05:40:39;;;;;;;4.93;1.65;;;;;;;-145.01;100.00;64805.59;5082859;28;20016;-58
2023/03/14 05:43:04;;;;;;;4.63;1.25;;;;;;;-145.01;100.00;64805.59;5080426;28;20032;-61
2023/03/14 05:45:29;;;;;;;2.58;1.10;;;;;;;-145.01;100.00;64805.59;5084654;28;20030;-60
2023/03/14 05:47:55;;;;;;;5.15;1.23;;;;;;;-145.01;100.00;64805.59;5074753;28;20029;-58
2023/03/14 05:50:20;;;;;;;7.13;1.60;;;;;;;-145.01;100.00;64805.59;5075279;28;20643;-60
2023/03/14 05:52:46;;;;;;;4.03;1.58;;;;;;;-145.01;100.00;64805.59;5075922;28;20020;-61
2023/03/14 05:55:11;;;;;;;4.18;1.17;;;;;;;-145.01;100.00;64805.59;5076248;28;20036;-60
2023/03/14 05:57:36;;;;;;;4.20;1.30;;;;;;;-145.01;100.00;64805.59;5087539;28;20024;-61
2023/03/14 06:00:05;;;;;;;4.97;1.30;;;;;;;-145.01;100.00;64805.59;5090188;28;20024;-60
2023/03/14 06:02:30;;;;;;;5.07;1.45;;;;;;;-145.01;100.00;64805.59;5076586;28;20450;-60
2023/03/14 06:04:56;;;;;;;5.53;1.50;;;;;;;-145.01;100.00;64805.59;5084076;28;20039;-60
2023/03/14 06:07:21;;;;;;;6.63;1.60;;;;;;;-145.01;100.00;64805.59;5074403;28;20024;-60
2023/03/14 06:09:46;;;;;;;6.82;1.60;;;;;;;-145.01;100.00;64805.59;5058716;28;20027;-60
2023/03/14 06:12:12;;;;;;;5.60;1.90;;;;;;;-145.01;100.00;64805.59;5079637;28;20020;-60
2023/03/14 06:14:37;;;;;;;4.55;1.40;;;;;;;-145.01;100.00;64805.59;5078150;28;20052;-60
2023/03/14 06:17:03;;;;;;;3.97;1.33;;;;;;;-145.01;100.00;64805.59;5078087;28;20365;-60
2023/03/14 06:19:28;;;;;;;4.93;1.30;;;;;;;-145.01;100.00;64805.59;5076362;28;20024;-60
2023/03/14 06:21:54;;;;;;;6.30;1.40;;;;;;;-145.01;100.00;64805.59;5080322;28;20043;-60
2023/03/14 06:24:19;;;;;;;4.60;1.85;;;;;;;-145.01;100.00;64805.59;5080658;28;20028;-60
2023/03/14 06:26:45;;;;;;;5.97;1.40;;;;;;;-145.01;100.00;64805.59;5066427;28;20032;-60
2023/03/14 06:29:10;;;;;;;4.63;1.85;;;;;;;-145.01;100.00;64805.59;5070026;28;20051;-60
2023/03/14 06:31:35;;;;;;;6.93;1.48;;;;;;;-145.01;100.00;64805.59;5077913;28;20070;-60
2023/03/14 06:34:01;;;;;;;7.47;1.35;;;;;;;-145.01;100.00;64805.59;5073067;28;20029;-60
2023/03/14 06:36:26;;;;;;;5.07;1.70;;;;;;;-145.01;100.00;64805.59;5088523;28;20036;-60
2023/03/14 06:38:52;;;;;;;6.82;1.50;;;;;;;-145.01;100.00;64805.59;5083958;28;20378;-61
2023/03/14 06:41:17;;;;;;;5.38;1.60;;;;;;;-145.01;100.00;64805.59;5082723;28;20642;-60
2023/03/14 06:43:42;;;;;;;3.20;1.60;;;;;;;-145.01;100.00;64805.59;5061381;28;20026;-60
2023/03/14 06:46:08;;;;;;;3.28;1.17;;;;;;;-145.01;100.00;64805.59;5079925;28;20040;-60
2023/03/14 06:48:34;;;;;;;7.95;1.95;;;;;;;-145.01;100.00;64805.59;5078372;28;20028;-60
2023/03/14 06:50:59;;;;;;;4.75;1.50;;;;;;;-145.01;100.00;64805.59;5074540;28;20024;-60
2023/03/14 06:53:24;;;;;;;4.47;1.30;;;;;;;-145.01;100.00;64805.59;5074697;28;20403;-60
2023/03/14 06:55:50;;;;;;;10.00;1.40;;;;;;;-145.01;100.00;64805.59;5070177;28;20020;-60
2023/03/14 06:58:15;;;;;;;3.33;1.60;;;;;;;-145.01;100.00;64805.59;5076504;28;20029;-61
2023/03/14 07:00:41;;;;;;;5.68;1.45;;;;;;;-145.01;100.00;64805.59;5087152;28;20023;-60
2023/03/14 07:03:06;;;;;;;9.13;1.80;;;;;;;-145.01;100.00;64805.59;5081644;28;20349;-60
2023/03/14 07:05:32;;;;;;;15.75;2.15;;;;;;;-145.01;100.00;64805.59;5075032;28;20032;-61
2023/03/14 07:07:57;;;;;;;7.03;1.52;;;;;;;-145.01;100.00;64805.59;5077331;28;20044;-61
2023/03/14 07:10:22;;;;;;;11.60;1.50;;;;;;;-145.01;100.00;64805.59;5075087;28;20016;-61
2023/03/14 07:12:48;;;;;;;5.85;1.50;;;;;;;-145.01;100.00;64805.59;5075654;28;20048;-60
2023/03/14 07:15:14;;;;;;;6.80;1.60;;;;;;;-145.01;100.00;64805.59;5079654;28;20118;-60
2023/03/14 07:17:39;;;;;;;4.95;1.38;;;;;;;-145.01;100.00;64805.59;5072457;28;20149;-61
2023/03/14 07:20:06;;;;;;;4.07;1.35;;;;;;;-145.01;100.00;64805.59;5078306;28;20042;-61
2023/03/14 07:22:32;;;;;;;4.20;1.30;;;;;;;-145.01;100.00;64805.59;5079791;28;20031;-60
2023/03/14 07:24:57;;;;;;;3.45;1.30;;;;;;;-145.01;100.00;64805.59;5080475;28;20041;-60
2023/03/14 07:27:23;;;;;;;6.32;1.60;;;;;;;-145.01;100.00;64805.59;5076247;28;20020;-60
2023/03/14 07:29:48;;;;;;;6.38;1.42;;;;;;;-145.01;100.00;64805.59;5074693;28;20031;-60
2023/03/14 07:32:14;;;;;;;2.88;1.20;;;;;;;-145.01;100.00;64805.59;5079835;28;20031;-61
2023/03/14 07:34:42;;;;;;;5.20;1.40;;;;;;;-145.01;100.00;64805.59;5083098;28;20040;-60
2023/03/14 07:37:08;;;;;;;8.68;1.30;;;;;;;-145.01;100.00;64805.59;5074966;28;20474;-60
2023/03/14 07:39:34;;;;;;;7.63;1.60;;;;;;;-145.01;100.00;64805.59;5087730;28;20390;-58
2023/03/14 07:42:02;;;;;;;6.68;1.33;;;;;;;-145.01;100.00;64805.59;5083168;28;20471;-58
2023/03/14 07:44:28;;;;;;;6.60;1.33;;;;;;;-145.01;100.00;64805.59;5043886;28;20170;-58
2023/03/14 07:46:53;;;;;;;3.97;1.48;;;;;;;-145.01;100.00;64805.59;5077747;28;20016;-58
2023/03/14 07:49:19;;;;;;;3.83;1.10;;;;;;;-145.01;100.00;64805.59;5080369;28;20304;-58
2023/03/14 07:51:46;;;;;;;5.15;1.15;;;;;;;-145.01;100.00;64805.59;5056304;28;20502;-58
2023/03/14 07:54:12;;;;;;;3.92;1.65;;;;;;;-145.01;100.00;64805.59;5079802;28;20029;-58
2023/03/14 07:56:37;;;;;;;5.97;1.55;;;;;;;-145.01;100.00;64805.59;5080261;28;20186;-60
2023/03/14 07:59:03;;;;;;;1.95;1.00;;;;;;;-145.01;100.00;64805.59;5068700;28;20020;-59
2023/03/14 08:01:28;;;;;;;4.07;1.10;;;;;;;-145.01;100.00;64805.59;5083607;28;20035;-59
2023/03/14 08:03:54;;;;;;;6.07;1.35;;;;;;;-145.01;100.00;64805.59;5080935;28;20036;-59
2023/03/14 08:06:19;;;;;;;2.47;1.30;;;;;;;-145.01;100.00;64805.59;5077491;28;20058;-59
2023/03/14 08:08:45;;;;;;;3.67;1.25;;;;;;;-145.01;100.00;64805.59;5055056;28;20032;-59
2023/03/14 08:11:10;;;;;;;2.47;1.35;;;;;;;-145.01;100.00;64805.59;5075658;28;20024;-59
2023/03/14 08:13:37;;;;;;;1.45;1.10;;;;;;;-145.01;100.00;64805.59;5061560;28;20481;-59
2023/03/14 08:16:02;;;;;;;4.07;1.23;;;;;;;-145.01;100.00;64805.59;5081811;28;20040;-58
2023/03/14 08:18:28;;;;;;;3.58;1.30;;;;;;;-145.01;100.00;64805.59;5080220;28;20078;-59
2023/03/14 08:20:53;;;;;;;7.30;3.92;;;;;;;-145.01;100.00;64805.59;5082842;28;20086;-59
2023/03/14 08:23:19;;;;;;;2.50;1.23;;;;;;;-145.01;100.00;64805.59;5075100;28;20039;-59
2023/03/14 08:25:44;;;;;;;2.15;1.13;;;;;;;-145.01;100.00;64805.59;5084709;28;20031;-58
2023/03/14 08:28:09;;;;;;;3.58;1.05;;;;;;;-145.01;100.00;64805.59;5072990;28;20024;-59
2023/03/14 08:30:35;;;;;;;4.47;1.13;;;;;;;-145.01;100.00;64805.59;5076685;28;20040;-59
2023/03/14 08:33:00;;;;;;;2.53;1.50;;;;;;;-145.01;100.00;64805.59;5078543;28;20025;-59
2023/03/14 08:35:26;;;;;;;2.80;1.40;;;;;;;-145.01;100.00;64805.59;5075129;28;20028;-58
2023/03/14 08:37:52;;;;;;;4.68;1.17;;;;;;;-145.01;100.00;64805.59;5078691;28;20047;-60
2023/03/14 08:40:17;;;;;;;1.42;0.80;;;;;;;-145.01;100.00;64805.59;5060250;28;20434;-60
2023/03/14 08:42:43;;;;;;;2.45;1.10;;;;;;;-145.01;100.00;64805.59;5079645;28;20111;-60
2023/03/14 08:45:09;;;;;;;3.40;1.38;;;;;;;-145.01;100.00;64805.59;5086955;28;20413;-59
2023/03/14 08:47:34;;;;;;;4.07;1.20;;;;;;;-145.01;100.00;64805.59;5087233;28;20060;-60
2023/03/14 08:50:00;;;;;;;1.40;1.10;;;;;;;-145.01;100.00;64805.59;5076176;28;20046;-60
2023/03/14 08:52:25;;;;;;;3.40;1.08;;;;;;;-145.01;100.00;64805.59;5074541;28;20059;-60
2023/03/14 08:54:51;;;;;;;2.45;1.30;;;;;;;-145.01;100.00;64805.59;5081213;28;20374;-60
2023/03/14 08:57:16;;;;;;;2.17;1.13;;;;;;;-145.01;100.00;64805.59;5072944;28;20037;-60
2023/03/14 08:59:41;;;;;;;1.52;1.00;;;;;;;-145.01;100.00;64805.59;5077760;28;20031;-60
2023/03/14 09:02:10;;;;;;;2.28;1.10;;;;;;;-145.01;100.00;64805.59;5079867;28;20028;-60
2023/03/14 09:04:35;;;;;;;0.80;0.80;;;;;;;-145.01;100.00;64805.59;5058411;28;20300;-60
2023/03/14 09:07:01;;;;;;;4.38;1.25;;;;;;;-145.01;100.00;64805.59;5068198;28;20559;-60
2023/03/14 09:09:30;;;;;;;0.82;0.82;;;;;;;-145.01;100.00;64805.59;5076443;28;20464;-60
2023/03/14 09:11:55;;;;;;;3.78;1.10;;;;;;;-145.01;100.00;64805.59;5077684;28;20031;-60
2023/03/14 09:14:21;;;;;;;1.30;0.50;;;;;;;-145.01;100.00;64805.59;5076603;28;20036;-60
2023/03/14 09:16:46;;;;;;;1.70;0.85;;;;;;;-145.01;100.00;64805.59;5074325;28;20035;-60
2023/03/14 09:19:12;;;;;;;1.48;0.85;;;;;;;-145.01;100.00;64805.59;5082130;28;20025;-60
2023/03/14 09:21:38;;;;;;;2.28;1.05;;;;;;;-145.01;100.00;64805.59;5071016;28;20025;-60
2023/03/14 09:24:04;;;;;;;2.55;1.10;;;;;;;-145.01;100.00;64805.59;5054635;28;20040;-60
2023/03/14 09:26:30;;;;;;;2.50;1.23;;;;;;;-145.01;100.00;64805.59;5071886;28;20545;-60
2023/03/14 09:28:55;;;;;;;1.90;0.98;;;;;;;-145.01;100.00;64805.59;5086048;28;20057;-60
2023/03/14 09:31:21;;;;;;;3.13;1.17;;;;;;;-145.01;100.00;64805.59;5081312;28;20028;-60
2023/03/14 09:33:46;;;;;;;2.28;1.17;;;;;;;-145.01;100.00;64805.59;5077949;28;20494;-60
2023/03/14 09:36:12;;;;;;;2.20;1.08;;;;;;;-145.01;100.00;64805.59;5073218;28;20032;-60
2023/03/14 09:38:37;;;;;;;1.17;1.08;;;;;;;-145.01;100.00;64805.59;5071205;28;20599;-60
2023/03/14 09:41:03;;;;;;;1.40;1.30;;;;;;;-145.01;100.00;64805.59;5072545;28;20028;-60
2023/03/14 09:43:30;;;;;;;1.55;1.27;;;;;;;-145.01;100.00;64805.59;5058309;28;20039;-60
2023/03/14 09:45:55;;;;;;;2.28;1.58;;;;;;;-145.01;100.00;64805.59;5068596;28;20028;-60
2023/03/14 09:48:22;;;;;;;2.08;1.40;;;;;;;-145.01;100.00;64805.59;5034269;28;20527;-60
2023/03/14 09:50:55;;;;;;;6.03;1.00;;;;;;;-145.01;100.00;64805.59;5071996;28;20028;-60
2023/03/14 09:53:26;;;;;;;1.02;0.90;;;;;;;-145.01;100.00;64805.59;5072841;28;20040;-60
2023/03/14 09:55:52;;;;;;;2.35;1.50;;;;;;;-145.01;100.00;64805.59;5038546;28;20039;-60
2023/03/14 09:58:21;;;;;;;2.97;1.60;;;;;;;-145.01;100.00;64805.59;5052025;28;20028;-60
2023/03/14 10:00:47;;;;;;;1.13;1.00;;;;;;;-145.01;100.00;64805.59;5076911;28;20027;-60
2023/03/14 10:03:12;;;;;;;1.05;0.95;;;;;;;-145.01;100.00;64805.59;5080785;28;20036;-60
2023/03/14 10:05:38;;;;;;;1.75;1.33;;;;;;;-145.01;100.00;64805.59;5071357;28;20430;-59
2023/03/14 10:08:04;;;;;;;2.90;1.20;;;;;;;-145.01;100.00;64805.59;5045912;28;20236;-58
2023/03/14 10:10:29;;;;;;;1.10;1.00;;;;;;;-145.01;100.00;64805.59;5077469;28;20599;-58
2023/03/14 10:13:00;;;;;;;1.02;1.00;;;;;;;-145.01;100.00;64805.59;5081653;28;20128;-58
2023/03/14 10:15:30;;;;;;;1.30;1.05;;;;;;;-145.01;100.00;64805.59;5054511;28;20030;-58
2023/03/14 10:17:57;;;;;;;1.00;0.85;;;;;;;-145.01;100.00;64805.59;5063815;28;20243;-58
2023/03/14 10:20:29;;;;;;;7.00;2.90;;;;;;;-145.01;100.00;64805.59;5039774;28;20031;-61
2023/03/14 10:22:54;;;;;;;0.95;0.93;;;;;;;-145.01;100.00;64805.59;5062041;28;20192;-58
2023/03/14 10:25:29;;;;;;;1.50;1.40;;;;;;;-145.01;100.00;64805.59;5074285;28;20474;-59
2023/03/14 10:27:54;;;;;;;1.88;1.20;;;;;;;-145.01;100.00;64805.59;5066559;28;20039;-59
2023/03/14 10:30:46;;;;;;;5.90;3.47;;;;;;;-145.01;100.00;64805.59;5075627;28;20033;-59
2023/03/14 10:33:18;;;;;;;5.88;1.77;;;;;;;-145.01;100.00;64805.59;5079655;28;20077;-58
2023/03/14 10:35:43;;;;;;;4.97;2.28;;;;;;;-145.01;100.00;64805.59;5073815;28;20028;-58
2023/03/14 10:38:13;;;;;;;4.13;1.48;;;;;;;-145.01;100.00;64805.59;5080478;28;20021;-59
2023/03/14 10:40:39;;;;;;;4.15;1.50;;;;;;;-145.01;100.00;64805.59;5071476;28;20027;-58
2023/03/14 10:43:06;;;;;;;2.00;1.10;;;;;;;-145.01;100.00;64805.59;5074625;28;20355;-58
2023/03/14 10:45:38;;;;;;;2.53;1.27;;;;;;;-145.01;100.00;64805.59;5060940;28;20024;-60
2023/03/14 10:48:32;;;;;;;4.95;2.67;;;;;;;-145.01;100.00;64805.59;5054049;28;20123;-58
2023/03/14 10:51:03;;;;;;;6.88;3.13;;;;;;;-145.01;100.00;64805.59;5078642;28;20032;-60
2023/03/14 10:54:14;;;;;;;7.72;5.20;;;;;;;-145.01;100.00;64805.59;5072632;28;20123;-60
2023/03/14 10:56:40;;;;;;;5.15;3.70;;;;;;;-145.01;100.00;64805.59;5002534;28;20107;-60
2023/03/14 10:59:12;;;;;;;2.58;1.83;;;;;;;-145.01;100.00;64805.59;5068178;28;20036;-60
2023/03/14 11:02:19;;;;;;;5.50;3.40;;;;;;;-145.01;100.00;64805.59;5065857;28;20469;-60
2023/03/14 11:05:04;;;;;;;6.82;3.70;;;;;;;-145.01;100.00;64805.59;5036653;28;20044;-60